createdAt,value
2023-02-23T15:42:13.748Z,1300.00
2023-02-23T15:46:14.801Z,1281.00
2023-02-23T15:53:30.347Z,1270.00
2023-02-23T15:57:30.331Z,1267.00
2023-02-23T16:05:46.615Z,1278.00
2023-02-23T16:09:40.763Z,1274.00
2023-02-23T16:13:39.627Z,1266.00
2023-02-23T16:17:39.677Z,1289.00
2023-02-23T16:21:39.855Z,1270.00
2023-02-23T16:25:40.017Z,1252.00
2023-02-23T16:29:40.172Z,1241.00
2023-02-23T16:33:40.311Z,1239.00
2023-02-23T16:37:40.185Z,1226.00
2023-02-23T16:41:40.138Z,1195.00
2023-02-23T16:45:40.069Z,1182.00
2023-02-23T16:49:39.900Z,1169.00
2023-02-23T16:53:39.799Z,1165.00
2023-02-23T16:57:39.708Z,1162.00
2023-02-23T17:01:39.595Z,1150.00
2023-02-23T17:05:39.495Z,1143.00
2023-02-23T17:09:39.455Z,1132.00
2023-02-23T17:13:39.347Z,1132.00
2023-02-23T17:17:39.506Z,1114.00
2023-02-23T17:21:39.402Z,1108.00
2023-02-23T17:25:39.308Z,1097.00
2023-02-23T17:29:39.244Z,1085.00
2023-02-23T17:33:39.131Z,1072.00
2023-02-23T17:37:39.009Z,1066.00
2023-02-23T17:41:38.917Z,1049.00
2023-02-23T17:45:38.812Z,1043.00
2023-02-23T17:49:38.751Z,1030.00
2023-02-23T17:53:38.628Z,1018.00
2023-02-23T17:57:38.569Z,1022.00
2023-02-23T18:01:38.446Z,1020.00
2023-02-23T18:05:38.428Z,1015.00
2023-02-23T18:09:38.294Z,1009.00
2023-02-23T18:13:38.191Z,1001.00
2023-02-23T18:17:38.134Z,998.00
2023-02-23T18:21:38.076Z,996.00
2023-02-23T18:25:38.006Z,993.00
2023-02-23T18:29:37.950Z,984.00
2023-02-23T18:33:37.881Z,973.00
2023-02-23T18:37:37.901Z,972.00
2023-02-23T18:41:37.736Z,966.00
2023-02-23T18:45:37.608Z,958.00
2023-02-23T18:49:37.578Z,948.00
2023-02-23T18:53:37.572Z,945.00
2023-02-23T18:57:37.491Z,933.00
2023-02-23T19:01:37.464Z,936.00
2023-02-23T19:05:37.407Z,931.00
2023-02-23T19:09:37.333Z,929.00
2023-02-23T19:13:37.250Z,928.00
2023-02-23T19:17:37.234Z,924.00
2023-02-23T19:21:37.142Z,919.00
2023-02-23T19:25:37.064Z,916.00
2023-02-23T19:29:37.049Z,909.00
2023-02-23T19:33:37.059Z,900.00
2023-02-23T19:37:36.900Z,899.00
2023-02-23T19:41:36.855Z,900.00
2023-02-23T19:45:36.840Z,893.00
2023-02-23T19:49:36.737Z,884.00
2023-02-23T19:53:36.672Z,878.00
2023-02-23T19:57:36.662Z,880.00
2023-02-23T20:01:36.628Z,875.00
2023-02-23T20:05:36.599Z,872.00
2023-02-23T20:09:36.502Z,872.00
2023-02-23T20:13:36.496Z,866.00
2023-02-23T20:17:36.399Z,866.00
2023-02-23T20:21:36.440Z,859.00
2023-02-23T20:25:36.387Z,864.00
2023-02-23T20:29:36.370Z,859.00
2023-02-23T20:33:36.356Z,858.00
2023-02-23T20:37:36.401Z,857.00
2023-02-23T20:41:36.360Z,852.00
2023-02-23T20:45:36.401Z,850.00
2023-02-23T20:49:36.416Z,845.00
2023-02-23T20:53:36.419Z,837.00
2023-02-23T20:57:36.406Z,832.00
2023-02-23T21:01:36.438Z,831.00
2023-02-23T21:05:38.190Z,826.00
2023-02-23T21:09:36.458Z,824.00
2023-02-23T21:13:36.486Z,819.00
2023-02-23T21:17:36.448Z,820.00
2023-02-23T21:21:36.436Z,809.00
2023-02-23T21:25:36.481Z,804.00
2023-02-23T21:29:36.459Z,809.00
2023-02-23T21:33:36.466Z,807.00
2023-02-23T21:37:36.457Z,806.00
2023-02-23T21:41:36.444Z,806.00
2023-02-23T21:45:36.447Z,805.00
2023-02-23T21:49:36.449Z,805.00
2023-02-23T21:53:36.447Z,803.00
2023-02-23T21:57:36.452Z,804.00
2023-02-23T22:01:36.581Z,796.00
2023-02-23T22:05:36.417Z,794.00
2023-02-23T22:09:36.455Z,795.00
2023-02-23T22:13:36.521Z,794.00
2023-02-23T22:17:36.593Z,790.00
2023-02-23T22:21:36.582Z,793.00
2023-02-23T22:25:36.597Z,788.00
2023-02-23T22:29:36.574Z,782.00
2023-02-23T22:33:36.509Z,778.00
2023-02-23T22:37:36.506Z,777.00
2023-02-23T22:41:36.452Z,771.00
2023-02-23T22:45:36.445Z,769.00
2023-02-23T22:49:36.407Z,772.00
2023-02-23T22:53:36.381Z,769.00
2023-02-23T22:57:36.352Z,764.00
2023-02-23T23:01:36.314Z,758.00
2023-02-23T23:05:36.284Z,756.00
2023-02-23T23:09:36.258Z,754.00
2023-02-23T23:13:36.215Z,758.00
2023-02-23T23:17:36.232Z,760.00
2023-02-23T23:21:36.214Z,751.00
2023-02-23T23:25:36.194Z,748.00
2023-02-23T23:29:36.161Z,742.00
2023-02-23T23:33:36.210Z,743.00
2023-02-23T23:37:36.155Z,742.00
2023-02-23T23:41:36.229Z,739.00
2023-02-23T23:45:36.192Z,738.00
2023-02-23T23:49:36.135Z,739.00
2023-02-23T23:53:36.161Z,734.00
2023-02-23T23:57:36.139Z,734.00
